sensor_id;sensor_type;location;lat;lon;timestamp;P1;durP1;ratioP1;P2;durP2;ratioP2
37715;SDS011;23562;50.540;12.504;2022-10-28T00:01:33;7.50;;;3.05;;
37715;SDS011;23562;50.540;12.504;2022-10-28T00:04:11;12.82;;;2.90;;
37715;SDS011;23562;50.540;12.504;2022-10-28T00:06:47;6.65;;;3.05;;
37715;SDS011;23562;50.540;12.504;2022-10-28T00:12:41;5.85;;;2.97;;
37715;SDS011;23562;50.540;12.504;2022-10-28T00:15:14;10.20;;;3.42;;
37715;SDS011;23562;50.540;12.504;2022-10-28T00:23:55;9.20;;;3.03;;
37715;SDS011;23562;50.540;12.504;2022-10-28T00:26:33;14.68;;;3.35;;
37715;SDS011;23562;50.540;12.504;2022-10-28T00:31:51;13.18;;;3.28;;
37715;SDS011;23562;50.540;12.504;2022-10-28T00:34:17;9.63;;;3.17;;
37715;SDS011;23562;50.540;12.504;2022-10-28T00:36:43;8.90;;;3.28;;
37715;SDS011;23562;50.540;12.504;2022-10-28T00:39:10;12.30;;;3.45;;
37715;SDS011;23562;50.540;12.504;2022-10-28T00:41:36;8.52;;;3.28;;
37715;SDS011;23562;50.540;12.504;2022-10-28T00:46:48;13.02;;;3.47;;
37715;SDS011;23562;50.540;12.504;2022-10-28T00:49:16;9.10;;;3.13;;
37715;SDS011;23562;50.540;12.504;2022-10-28T00:51:43;12.30;;;2.90;;
37715;SDS011;23562;50.540;12.504;2022-10-28T00:54:09;10.80;;;3.15;;
37715;SDS011;23562;50.540;12.504;2022-10-28T00:56:36;7.75;;;3.50;;
37715;SDS011;23562;50.540;12.504;2022-10-28T00:59:03;8.07;;;3.15;;
37715;SDS011;23562;50.540;12.504;2022-10-28T01:01:29;9.68;;;3.20;;
37715;SDS011;23562;50.540;12.504;2022-10-28T01:03:55;12.03;;;3.37;;
37715;SDS011;23562;50.540;12.504;2022-10-28T01:06:20;11.15;;;3.17;;
37715;SDS011;23562;50.540;12.504;2022-10-28T01:08:45;11.52;;;3.28;;
37715;SDS011;23562;50.540;12.504;2022-10-28T01:11:17;8.70;;;3.50;;
37715;SDS011;23562;50.540;12.504;2022-10-28T01:13:54;13.32;;;3.63;;
37715;SDS011;23562;50.540;12.504;2022-10-28T01:16:24;7.75;;;2.95;;
37715;SDS011;23562;50.540;12.504;2022-10-28T01:18:57;9.82;;;3.08;;
37715;SDS011;23562;50.540;12.504;2022-10-28T01:24:23;7.47;;;3.58;;
37715;SDS011;23562;50.540;12.504;2022-10-28T01:31:43;7.38;;;2.85;;
37715;SDS011;23562;50.540;12.504;2022-10-28T01:34:11;6.82;;;3.20;;
37715;SDS011;23562;50.540;12.504;2022-10-28T01:39:23;9.45;;;3.33;;
37715;SDS011;23562;50.540;12.504;2022-10-28T01:41:51;14.13;;;2.95;;
37715;SDS011;23562;50.540;12.504;2022-10-28T01:44:29;8.77;;;3.20;;
37715;SDS011;23562;50.540;12.504;2022-10-28T01:51:55;9.95;;;3.38;;
37715;SDS011;23562;50.540;12.504;2022-10-28T01:54:23;8.77;;;3.22;;
37715;SDS011;23562;50.540;12.504;2022-10-28T01:56:51;7.18;;;3.20;;
37715;SDS011;23562;50.540;12.504;2022-10-28T01:59:21;10.45;;;3.08;;
37715;SDS011;23562;50.540;12.504;2022-10-28T02:01:47;8.10;;;2.80;;
37715;SDS011;23562;50.540;12.504;2022-10-28T02:04:12;11.97;;;3.70;;
37715;SDS011;23562;50.540;12.504;2022-10-28T02:06:37;7.17;;;3.50;;
37715;SDS011;23562;50.540;12.504;2022-10-28T02:19:47;7.63;;;3.13;;
37715;SDS011;23562;50.540;12.504;2022-10-28T02:22:14;7.72;;;3.13;;
37715;SDS011;23562;50.540;12.504;2022-10-28T02:27:15;8.63;;;3.33;;
37715;SDS011;23562;50.540;12.504;2022-10-28T02:29:46;8.27;;;3.60;;
37715;SDS011;23562;50.540;12.504;2022-10-28T02:32:13;7.40;;;3.63;;
37715;SDS011;23562;50.540;12.504;2022-10-28T02:34:41;8.52;;;3.20;;
37715;SDS011;23562;50.540;12.504;2022-10-28T02:37:10;10.68;;;3.55;;
37715;SDS011;23562;50.540;12.504;2022-10-28T02:39:38;9.52;;;3.78;;
37715;SDS011;23562;50.540;12.504;2022-10-28T02:42:09;11.82;;;3.60;;
37715;SDS011;23562;50.540;12.504;2022-10-28T02:44:40;15.13;;;3.78;;
37715;SDS011;23562;50.540;12.504;2022-10-28T02:47:08;11.27;;;3.67;;
37715;SDS011;23562;50.540;12.504;2022-10-28T02:49:35;11.35;;;3.50;;
37715;SDS011;23562;50.540;12.504;2022-10-28T02:52:02;9.57;;;3.53;;
37715;SDS011;23562;50.540;12.504;2022-10-28T02:57:17;10.88;;;3.65;;
37715;SDS011;23562;50.540;12.504;2022-10-28T02:59:50;11.65;;;3.25;;
37715;SDS011;23562;50.540;12.504;2022-10-28T03:02:15;10.45;;;3.15;;
37715;SDS011;23562;50.540;12.504;2022-10-28T03:04:40;9.30;;;3.38;;
37715;SDS011;23562;50.540;12.504;2022-10-28T03:07:05;13.37;;;3.50;;
37715;SDS011;23562;50.540;12.504;2022-10-28T03:09:30;8.17;;;3.50;;
37715;SDS011;23562;50.540;12.504;2022-10-28T03:11:56;8.30;;;3.22;;
37715;SDS011;23562;50.540;12.504;2022-10-28T03:14:21;12.32;;;3.33;;
37715;SDS011;23562;50.540;12.504;2022-10-28T03:16:46;12.00;;;3.83;;
37715;SDS011;23562;50.540;12.504;2022-10-28T03:19:11;15.80;;;3.25;;
37715;SDS011;23562;50.540;12.504;2022-10-28T03:21:37;9.30;;;2.97;;
37715;SDS011;23562;50.540;12.504;2022-10-28T03:24:02;16.20;;;3.93;;
37715;SDS011;23562;50.540;12.504;2022-10-28T03:26:27;10.37;;;3.43;;
37715;SDS011;23562;50.540;12.504;2022-10-28T03:28:52;14.97;;;3.50;;
37715;SDS011;23562;50.540;12.504;2022-10-28T03:31:17;9.30;;;3.63;;
37715;SDS011;23562;50.540;12.504;2022-10-28T03:33:42;13.37;;;3.80;;
37715;SDS011;23562;50.540;12.504;2022-10-28T03:36:08;10.57;;;3.80;;
37715;SDS011;23562;50.540;12.504;2022-10-28T03:38:33;10.40;;;3.80;;
37715;SDS011;23562;50.540;12.504;2022-10-28T03:40:58;10.20;;;4.50;;
37715;SDS011;23562;50.540;12.504;2022-10-28T03:43:23;8.27;;;3.70;;
37715;SDS011;23562;50.540;12.504;2022-10-28T03:45:48;10.30;;;3.50;;
37715;SDS011;23562;50.540;12.504;2022-10-28T03:48:14;15.37;;;3.53;;
37715;SDS011;23562;50.540;12.504;2022-10-28T03:50:39;9.68;;;3.53;;
37715;SDS011;23562;50.540;12.504;2022-10-28T03:53:04;15.07;;;4.33;;
37715;SDS011;23562;50.540;12.504;2022-10-28T03:55:29;13.50;;;4.47;;
37715;SDS011;23562;50.540;12.504;2022-10-28T03:57:54;12.63;;;3.77;;
37715;SDS011;23562;50.540;12.504;2022-10-28T04:00:20;11.73;;;4.00;;
37715;SDS011;23562;50.540;12.504;2022-10-28T04:02:51;8.27;;;3.47;;
37715;SDS011;23562;50.540;12.504;2022-10-28T04:05:17;10.77;;;3.85;;
37715;SDS011;23562;50.540;12.504;2022-10-28T04:07:43;13.32;;;3.90;;
37715;SDS011;23562;50.540;12.504;2022-10-28T04:10:08;15.93;;;3.80;;
37715;SDS011;23562;50.540;12.504;2022-10-28T04:12:33;12.43;;;4.18;;
37715;SDS011;23562;50.540;12.504;2022-10-28T04:14:58;15.37;;;4.10;;
37715;SDS011;23562;50.540;12.504;2022-10-28T04:17:24;10.53;;;3.87;;
37715;SDS011;23562;50.540;12.504;2022-10-28T04:19:49;12.30;;;3.67;;
37715;SDS011;23562;50.540;12.504;2022-10-28T04:22:14;11.68;;;4.25;;
37715;SDS011;23562;50.540;12.504;2022-10-28T04:24:39;13.77;;;4.00;;
37715;SDS011;23562;50.540;12.504;2022-10-28T04:27:04;11.80;;;3.90;;
37715;SDS011;23562;50.540;12.504;2022-10-28T04:29:30;10.27;;;3.47;;
37715;SDS011;23562;50.540;12.504;2022-10-28T04:31:55;16.15;;;5.53;;
37715;SDS011;23562;50.540;12.504;2022-10-28T04:34:20;17.93;;;7.90;;
37715;SDS011;23562;50.540;12.504;2022-10-28T04:36:45;29.92;;;12.02;;
37715;SDS011;23562;50.540;12.504;2022-10-28T04:39:11;11.60;;;4.30;;
37715;SDS011;23562;50.540;12.504;2022-10-28T04:41:36;16.57;;;6.73;;
37715;SDS011;23562;50.540;12.504;2022-10-28T04:44:01;16.33;;;4.03;;
37715;SDS011;23562;50.540;12.504;2022-10-28T04:46:26;22.13;;;8.30;;
37715;SDS011;23562;50.540;12.504;2022-10-28T04:48:51;14.63;;;3.87;;
37715;SDS011;23562;50.540;12.504;2022-10-28T04:51:16;17.30;;;3.43;;
37715;SDS011;23562;50.540;12.504;2022-10-28T04:53:42;11.33;;;3.57;;
37715;SDS011;23562;50.540;12.504;2022-10-28T04:56:07;16.10;;;4.30;;
37715;SDS011;23562;50.540;12.504;2022-10-28T04:58:32;11.95;;;3.95;;
37715;SDS011;23562;50.540;12.504;2022-10-28T05:00:57;17.63;;;4.63;;
37715;SDS011;23562;50.540;12.504;2022-10-28T05:03:23;11.10;;;3.37;;
37715;SDS011;23562;50.540;12.504;2022-10-28T05:05:48;10.80;;;3.20;;
37715;SDS011;23562;50.540;12.504;2022-10-28T05:08:13;11.90;;;4.00;;
37715;SDS011;23562;50.540;12.504;2022-10-28T05:10:38;18.27;;;4.53;;
37715;SDS011;23562;50.540;12.504;2022-10-28T05:13:03;10.40;;;4.10;;
37715;SDS011;23562;50.540;12.504;2022-10-28T05:15:29;13.53;;;4.07;;
37715;SDS011;23562;50.540;12.504;2022-10-28T05:17:55;12.20;;;3.97;;
37715;SDS011;23562;50.540;12.504;2022-10-28T05:20:20;12.23;;;4.10;;
37715;SDS011;23562;50.540;12.504;2022-10-28T05:22:46;12.13;;;3.70;;
37715;SDS011;23562;50.540;12.504;2022-10-28T05:25:11;9.65;;;4.20;;
37715;SDS011;23562;50.540;12.504;2022-10-28T05:27:36;15.27;;;3.77;;
37715;SDS011;23562;50.540;12.504;2022-10-28T05:30:01;12.33;;;3.80;;
37715;SDS011;23562;50.540;12.504;2022-10-28T05:32:27;12.98;;;4.22;;
37715;SDS011;23562;50.540;12.504;2022-10-28T05:34:52;12.53;;;3.80;;
37715;SDS011;23562;50.540;12.504;2022-10-28T05:37:17;11.77;;;6.07;;
37715;SDS011;23562;50.540;12.504;2022-10-28T05:39:42;13.33;;;4.33;;
37715;SDS011;23562;50.540;12.504;2022-10-28T05:42:07;10.73;;;4.23;;
37715;SDS011;23562;50.540;12.504;2022-10-28T05:44:33;11.90;;;3.80;;
37715;SDS011;23562;50.540;12.504;2022-10-28T05:46:58;9.50;;;3.83;;
37715;SDS011;23562;50.540;12.504;2022-10-28T05:49:23;11.48;;;4.05;;
37715;SDS011;23562;50.540;12.504;2022-10-28T05:51:48;13.90;;;3.97;;
37715;SDS011;23562;50.540;12.504;2022-10-28T05:54:13;13.33;;;4.33;;
37715;SDS011;23562;50.540;12.504;2022-10-28T05:56:38;17.17;;;4.00;;
37715;SDS011;23562;50.540;12.504;2022-10-28T05:59:03;12.30;;;4.03;;
37715;SDS011;23562;50.540;12.504;2022-10-28T06:01:29;11.10;;;3.17;;
37715;SDS011;23562;50.540;12.504;2022-10-28T06:03:54;11.23;;;3.63;;
37715;SDS011;23562;50.540;12.504;2022-10-28T06:06:19;18.50;;;5.00;;
37715;SDS011;23562;50.540;12.504;2022-10-28T06:08:44;13.38;;;3.70;;
37715;SDS011;23562;50.540;12.504;2022-10-28T06:11:09;10.83;;;3.63;;
37715;SDS011;23562;50.540;12.504;2022-10-28T06:13:35;7.83;;;3.47;;
37715;SDS011;23562;50.540;12.504;2022-10-28T06:16:00;13.80;;;3.80;;
37715;SDS011;23562;50.540;12.504;2022-10-28T06:18:25;16.25;;;3.78;;
37715;SDS011;23562;50.540;12.504;2022-10-28T06:20:51;13.23;;;3.43;;
37715;SDS011;23562;50.540;12.504;2022-10-28T06:23:17;14.35;;;3.58;;
37715;SDS011;23562;50.540;12.504;2022-10-28T06:25:42;10.65;;;3.67;;
37715;SDS011;23562;50.540;12.504;2022-10-28T06:28:07;11.97;;;3.70;;
37715;SDS011;23562;50.540;12.504;2022-10-28T06:30:33;15.13;;;3.80;;
37715;SDS011;23562;50.540;12.504;2022-10-28T06:32:59;16.73;;;3.33;;
37715;SDS011;23562;50.540;12.504;2022-10-28T06:35:24;9.60;;;3.10;;
37715;SDS011;23562;50.540;12.504;2022-10-28T06:37:53;11.63;;;4.17;;
37715;SDS011;23562;50.540;12.504;2022-10-28T06:40:18;16.73;;;4.10;;
37715;SDS011;23562;50.540;12.504;2022-10-28T06:42:43;10.30;;;3.67;;
37715;SDS011;23562;50.540;12.504;2022-10-28T06:45:09;11.70;;;3.53;;
37715;SDS011;23562;50.540;12.504;2022-10-28T06:47:34;13.30;;;3.92;;
37715;SDS011;23562;50.540;12.504;2022-10-28T06:49:59;7.83;;;3.73;;
37715;SDS011;23562;50.540;12.504;2022-10-28T06:52:24;11.83;;;3.90;;
37715;SDS011;23562;50.540;12.504;2022-10-28T06:54:49;14.80;;;3.70;;
37715;SDS011;23562;50.540;12.504;2022-10-28T06:57:14;10.57;;;3.70;;
37715;SDS011;23562;50.540;12.504;2022-10-28T06:59:40;14.87;;;4.10;;
37715;SDS011;23562;50.540;12.504;2022-10-28T07:02:06;11.50;;;3.75;;
37715;SDS011;23562;50.540;12.504;2022-10-28T07:04:33;13.20;;;4.53;;
37715;SDS011;23562;50.540;12.504;2022-10-28T07:06:58;39.63;;;16.98;;
37715;SDS011;23562;50.540;12.504;2022-10-28T07:09:23;14.00;;;5.53;;
37715;SDS011;23562;50.540;12.504;2022-10-28T07:11:49;9.40;;;3.50;;
37715;SDS011;23562;50.540;12.504;2022-10-28T07:14:14;26.80;;;13.70;;
37715;SDS011;23562;50.540;12.504;2022-10-28T07:16:39;10.25;;;4.43;;
37715;SDS011;23562;50.540;12.504;2022-10-28T07:19:05;13.65;;;4.13;;
37715;SDS011;23562;50.540;12.504;2022-10-28T07:21:31;13.03;;;5.17;;
37715;SDS011;23562;50.540;12.504;2022-10-28T07:23:56;16.13;;;3.93;;
37715;SDS011;23562;50.540;12.504;2022-10-28T07:26:21;19.38;;;9.02;;
37715;SDS011;23562;50.540;12.504;2022-10-28T07:28:47;24.73;;;10.75;;
37715;SDS011;23562;50.540;12.504;2022-10-28T07:31:13;19.13;;;8.97;;
37715;SDS011;23562;50.540;12.504;2022-10-28T07:33:38;18.33;;;7.82;;
37715;SDS011;23562;50.540;12.504;2022-10-28T07:36:03;17.70;;;6.23;;
37715;SDS011;23562;50.540;12.504;2022-10-28T07:38:29;20.92;;;5.88;;
37715;SDS011;23562;50.540;12.504;2022-10-28T07:40:54;15.85;;;7.15;;
37715;SDS011;23562;50.540;12.504;2022-10-28T07:43:19;11.43;;;5.50;;
37715;SDS011;23562;50.540;12.504;2022-10-28T07:45:45;14.32;;;4.57;;
37715;SDS011;23562;50.540;12.504;2022-10-28T07:48:10;11.87;;;4.23;;
37715;SDS011;23562;50.540;12.504;2022-10-28T07:50:35;15.80;;;4.13;;
37715;SDS011;23562;50.540;12.504;2022-10-28T07:53:00;15.97;;;4.43;;
37715;SDS011;23562;50.540;12.504;2022-10-28T07:55:25;10.63;;;3.60;;
37715;SDS011;23562;50.540;12.504;2022-10-28T07:57:51;13.15;;;4.05;;
37715;SDS011;23562;50.540;12.504;2022-10-28T08:00:16;12.45;;;3.42;;
37715;SDS011;23562;50.540;12.504;2022-10-28T08:02:41;10.95;;;4.10;;
37715;SDS011;23562;50.540;12.504;2022-10-28T08:05:06;13.87;;;4.57;;
37715;SDS011;23562;50.540;12.504;2022-10-28T08:07:31;11.15;;;4.20;;
37715;SDS011;23562;50.540;12.504;2022-10-28T08:09:57;15.27;;;4.13;;
37715;SDS011;23562;50.540;12.504;2022-10-28T08:12:23;18.23;;;3.60;;
37715;SDS011;23562;50.540;12.504;2022-10-28T08:14:48;11.63;;;3.33;;
37715;SDS011;23562;50.540;12.504;2022-10-28T08:17:13;16.17;;;3.57;;
37715;SDS011;23562;50.540;12.504;2022-10-28T08:19:38;16.60;;;3.23;;
37715;SDS011;23562;50.540;12.504;2022-10-28T08:22:03;8.50;;;3.30;;
37715;SDS011;23562;50.540;12.504;2022-10-28T08:24:28;12.50;;;3.13;;
37715;SDS011;23562;50.540;12.504;2022-10-28T08:26:53;14.90;;;3.60;;
37715;SDS011;23562;50.540;12.504;2022-10-28T08:29:19;17.70;;;4.97;;
37715;SDS011;23562;50.540;12.504;2022-10-28T08:31:44;14.17;;;4.30;;
37715;SDS011;23562;50.540;12.504;2022-10-28T08:34:09;9.20;;;4.35;;
37715;SDS011;23562;50.540;12.504;2022-10-28T08:36:34;13.77;;;4.03;;
37715;SDS011;23562;50.540;12.504;2022-10-28T08:38:59;13.82;;;3.33;;
37715;SDS011;23562;50.540;12.504;2022-10-28T08:41:30;13.27;;;3.42;;
37715;SDS011;23562;50.540;12.504;2022-10-28T08:46:29;19.85;;;3.97;;
37715;SDS011;23562;50.540;12.504;2022-10-28T08:49:02;13.43;;;3.53;;
37715;SDS011;23562;50.540;12.504;2022-10-28T08:51:31;11.30;;;3.50;;
37715;SDS011;23562;50.540;12.504;2022-10-28T08:54:01;15.98;;;3.55;;
37715;SDS011;23562;50.540;12.504;2022-10-28T08:56:34;9.50;;;3.10;;
37715;SDS011;23562;50.540;12.504;2022-10-28T08:59:03;13.38;;;3.17;;
37715;SDS011;23562;50.540;12.504;2022-10-28T09:04:17;12.88;;;3.10;;
37715;SDS011;23562;50.540;12.504;2022-10-28T09:06:46;8.27;;;2.88;;
37715;SDS011;23562;50.540;12.504;2022-10-28T09:09:14;11.67;;;3.33;;
37715;SDS011;23562;50.540;12.504;2022-10-28T09:14:16;11.00;;;3.05;;
37715;SDS011;23562;50.540;12.504;2022-10-28T09:19:21;10.02;;;3.10;;
37715;SDS011;23562;50.540;12.504;2022-10-28T09:24:42;14.93;;;3.45;;
37715;SDS011;23562;50.540;12.504;2022-10-28T09:27:13;12.85;;;3.45;;
37715;SDS011;23562;50.540;12.504;2022-10-28T09:29:48;12.75;;;2.83;;
37715;SDS011;23562;50.540;12.504;2022-10-28T09:32:20;11.55;;;2.85;;
37715;SDS011;23562;50.540;12.504;2022-10-28T09:34:50;14.40;;;2.90;;
37715;SDS011;23562;50.540;12.504;2022-10-28T09:37:17;8.32;;;2.63;;
37715;SDS011;23562;50.540;12.504;2022-10-28T09:39:45;11.60;;;2.67;;
37715;SDS011;23562;50.540;12.504;2022-10-28T09:42:13;10.02;;;2.95;;
37715;SDS011;23562;50.540;12.504;2022-10-28T09:44:46;11.98;;;3.10;;
37715;SDS011;23562;50.540;12.504;2022-10-28T09:47:18;11.95;;;3.10;;
37715;SDS011;23562;50.540;12.504;2022-10-28T09:49:44;15.02;;;3.00;;
37715;SDS011;23562;50.540;12.504;2022-10-28T09:52:12;11.52;;;2.80;;
37715;SDS011;23562;50.540;12.504;2022-10-28T09:54:39;9.15;;;2.75;;
37715;SDS011;23562;50.540;12.504;2022-10-28T09:57:05;10.63;;;2.90;;
37715;SDS011;23562;50.540;12.504;2022-10-28T09:59:30;8.02;;;2.63;;
37715;SDS011;23562;50.540;12.504;2022-10-28T10:01:56;12.47;;;3.00;;
37715;SDS011;23562;50.540;12.504;2022-10-28T10:04:22;9.98;;;3.13;;
37715;SDS011;23562;50.540;12.504;2022-10-28T10:06:55;10.50;;;3.00;;
37715;SDS011;23562;50.540;12.504;2022-10-28T10:09:25;13.25;;;3.15;;
37715;SDS011;23562;50.540;12.504;2022-10-28T10:11:52;10.50;;;2.97;;
37715;SDS011;23562;50.540;12.504;2022-10-28T10:14:24;8.85;;;2.55;;
37715;SDS011;23562;50.540;12.504;2022-10-28T10:16:58;7.88;;;2.50;;
37715;SDS011;23562;50.540;12.504;2022-10-28T10:19:24;19.25;;;3.22;;
37715;SDS011;23562;50.540;12.504;2022-10-28T10:21:53;11.40;;;2.80;;
37715;SDS011;23562;50.540;12.504;2022-10-28T10:24:34;8.40;;;2.53;;
37715;SDS011;23562;50.540;12.504;2022-10-28T10:27:11;11.63;;;3.60;;
37715;SDS011;23562;50.540;12.504;2022-10-28T10:29:36;11.23;;;3.05;;
37715;SDS011;23562;50.540;12.504;2022-10-28T10:32:13;7.20;;;2.63;;
37715;SDS011;23562;50.540;12.504;2022-10-28T10:37:18;12.40;;;3.15;;
37715;SDS011;23562;50.540;12.504;2022-10-28T10:39:44;12.13;;;3.13;;
37715;SDS011;23562;50.540;12.504;2022-10-28T10:42:15;11.05;;;2.88;;
37715;SDS011;23562;50.540;12.504;2022-10-28T10:44:44;17.50;;;3.47;;
37715;SDS011;23562;50.540;12.504;2022-10-28T10:49:35;10.25;;;2.92;;
37715;SDS011;23562;50.540;12.504;2022-10-28T10:52:01;11.13;;;2.40;;
37715;SDS011;23562;50.540;12.504;2022-10-28T10:54:29;8.07;;;2.78;;
37715;SDS011;23562;50.540;12.504;2022-10-28T10:59:32;12.60;;;3.20;;
37715;SDS011;23562;50.540;12.504;2022-10-28T11:01:58;14.50;;;3.63;;
37715;SDS011;23562;50.540;12.504;2022-10-28T11:04:24;13.87;;;3.00;;
37715;SDS011;23562;50.540;12.504;2022-10-28T11:06:54;11.98;;;2.90;;
37715;SDS011;23562;50.540;12.504;2022-10-28T11:09:30;11.02;;;3.28;;
37715;SDS011;23562;50.540;12.504;2022-10-28T11:11:57;10.45;;;3.42;;
37715;SDS011;23562;50.540;12.504;2022-10-28T11:14:24;12.63;;;3.20;;
37715;SDS011;23562;50.540;12.504;2022-10-28T11:19:22;8.88;;;2.95;;
37715;SDS011;23562;50.540;12.504;2022-10-28T11:21:54;17.65;;;3.85;;
37715;SDS011;23562;50.540;12.504;2022-10-28T11:29:24;11.75;;;3.05;;
37715;SDS011;23562;50.540;12.504;2022-10-28T11:44:59;7.38;;;2.88;;
37715;SDS011;23562;50.540;12.504;2022-10-28T11:47:35;15.40;;;2.97;;
37715;SDS011;23562;50.540;12.504;2022-10-28T11:50:09;13.38;;;3.28;;
37715;SDS011;23562;50.540;12.504;2022-10-28T11:52:53;12.68;;;3.00;;
37715;SDS011;23562;50.540;12.504;2022-10-28T11:55:33;15.65;;;4.15;;
37715;SDS011;23562;50.540;12.504;2022-10-28T11:58:14;11.37;;;3.47;;
37715;SDS011;23562;50.540;12.504;2022-10-28T12:00:55;11.13;;;3.30;;
37715;SDS011;23562;50.540;12.504;2022-10-28T12:05:51;13.03;;;3.60;;
37715;SDS011;23562;50.540;12.504;2022-10-28T12:18:26;12.52;;;3.80;;
37715;SDS011;23562;50.540;12.504;2022-10-28T12:21:01;15.43;;;3.75;;
37715;SDS011;23562;50.540;12.504;2022-10-28T12:23:30;12.98;;;3.63;;
37715;SDS011;23562;50.540;12.504;2022-10-28T12:25:55;12.90;;;3.60;;
37715;SDS011;23562;50.540;12.504;2022-10-28T12:28:24;11.57;;;3.60;;
37715;SDS011;23562;50.540;12.504;2022-10-28T12:30:50;10.85;;;3.67;;
37715;SDS011;23562;50.540;12.504;2022-10-28T12:33:16;11.30;;;3.53;;
37715;SDS011;23562;50.540;12.504;2022-10-28T12:35:53;19.75;;;3.67;;
37715;SDS011;23562;50.540;12.504;2022-10-28T12:38:22;14.98;;;3.45;;
37715;SDS011;23562;50.540;12.504;2022-10-28T12:40:50;11.48;;;3.45;;
37715;SDS011;23562;50.540;12.504;2022-10-28T12:43:24;12.32;;;3.78;;
37715;SDS011;23562;50.540;12.504;2022-10-28T12:45:51;11.90;;;3.67;;
37715;SDS011;23562;50.540;12.504;2022-10-28T12:48:30;12.50;;;3.78;;
37715;SDS011;23562;50.540;12.504;2022-10-28T12:50:58;16.30;;;3.33;;
37715;SDS011;23562;50.540;12.504;2022-10-28T12:53:35;14.80;;;3.65;;
37715;SDS011;23562;50.540;12.504;2022-10-28T12:56:05;11.85;;;3.30;;
37715;SDS011;23562;50.540;12.504;2022-10-28T12:58:37;11.32;;;3.22;;
37715;SDS011;23562;50.540;12.504;2022-10-28T13:01:06;12.10;;;3.28;;
37715;SDS011;23562;50.540;12.504;2022-10-28T13:03:32;13.88;;;3.75;;
37715;SDS011;23562;50.540;12.504;2022-10-28T13:18:39;13.05;;;3.58;;
37715;SDS011;23562;50.540;12.504;2022-10-28T13:28:35;17.85;;;3.90;;
37715;SDS011;23562;50.540;12.504;2022-10-28T13:31:06;9.55;;;3.40;;
37715;SDS011;23562;50.540;12.504;2022-10-28T13:33:33;12.80;;;3.33;;
37715;SDS011;23562;50.540;12.504;2022-10-28T13:46:30;13.13;;;3.70;;
37715;SDS011;23562;50.540;12.504;2022-10-28T13:51:45;14.80;;;4.78;;
37715;SDS011;23562;50.540;12.504;2022-10-28T13:54:22;12.43;;;3.47;;
37715;SDS011;23562;50.540;12.504;2022-10-28T13:56:47;16.13;;;3.20;;
37715;SDS011;23562;50.540;12.504;2022-10-28T14:04:22;9.55;;;3.67;;
37715;SDS011;23562;50.540;12.504;2022-10-28T14:06:48;15.43;;;4.78;;
37715;SDS011;23562;50.540;12.504;2022-10-28T14:09:18;13.82;;;4.07;;
37715;SDS011;23562;50.540;12.504;2022-10-28T14:11:44;16.95;;;3.78;;
37715;SDS011;23562;50.540;12.504;2022-10-28T14:14:11;14.53;;;3.50;;
37715;SDS011;23562;50.540;12.504;2022-10-28T14:16:38;14.45;;;3.78;;
37715;SDS011;23562;50.540;12.504;2022-10-28T14:21:45;12.65;;;3.30;;
37715;SDS011;23562;50.540;12.504;2022-10-28T14:24:12;13.67;;;3.90;;
37715;SDS011;23562;50.540;12.504;2022-10-28T14:29:22;13.27;;;3.08;;
37715;SDS011;23562;50.540;12.504;2022-10-28T14:31:47;12.38;;;3.15;;
37715;SDS011;23562;50.540;12.504;2022-10-28T14:49:24;12.40;;;3.07;;
37715;SDS011;23562;50.540;12.504;2022-10-28T14:51:50;15.95;;;3.80;;
37715;SDS011;23562;50.540;12.504;2022-10-28T14:57:07;11.23;;;3.55;;
37715;SDS011;23562;50.540;12.504;2022-10-28T14:59:35;13.10;;;3.17;;
37715;SDS011;23562;50.540;12.504;2022-10-28T15:04:32;14.98;;;3.17;;
37715;SDS011;23562;50.540;12.504;2022-10-28T15:06:58;6.63;;;2.80;;
37715;SDS011;23562;50.540;12.504;2022-10-28T15:11:51;7.90;;;3.05;;
37715;SDS011;23562;50.540;12.504;2022-10-28T15:17:02;8.18;;;2.70;;
37715;SDS011;23562;50.540;12.504;2022-10-28T15:19:32;9.30;;;2.55;;
37715;SDS011;23562;50.540;12.504;2022-10-28T15:24:41;11.75;;;3.20;;
37715;SDS011;23562;50.540;12.504;2022-10-28T15:27:15;14.82;;;3.25;;
37715;SDS011;23562;50.540;12.504;2022-10-28T15:29:41;9.03;;;3.20;;
37715;SDS011;23562;50.540;12.504;2022-10-28T15:34:36;12.70;;;3.13;;
37715;SDS011;23562;50.540;12.504;2022-10-28T15:37:01;9.17;;;3.67;;
37715;SDS011;23562;50.540;12.504;2022-10-28T15:39:27;11.02;;;3.70;;
37715;SDS011;23562;50.540;12.504;2022-10-28T15:41:52;7.63;;;3.83;;
37715;SDS011;23562;50.540;12.504;2022-10-28T15:46:47;16.92;;;4.25;;
37715;SDS011;23562;50.540;12.504;2022-10-28T15:49:18;10.57;;;3.30;;
37715;SDS011;23562;50.540;12.504;2022-10-28T15:54:19;9.00;;;3.40;;
37715;SDS011;23562;50.540;12.504;2022-10-28T15:56:55;11.52;;;3.35;;
37715;SDS011;23562;50.540;12.504;2022-10-28T15:59:21;12.98;;;3.50;;
37715;SDS011;23562;50.540;12.504;2022-10-28T16:01:46;8.98;;;2.88;;
37715;SDS011;23562;50.540;12.504;2022-10-28T16:06:43;9.68;;;3.50;;
37715;SDS011;23562;50.540;12.504;2022-10-28T16:11:34;14.87;;;5.10;;
37715;SDS011;23562;50.540;12.504;2022-10-28T16:14:02;9.38;;;4.30;;
37715;SDS011;23562;50.540;12.504;2022-10-28T16:16:29;23.63;;;12.57;;
37715;SDS011;23562;50.540;12.504;2022-10-28T16:19:06;21.77;;;9.07;;
37715;SDS011;23562;50.540;12.504;2022-10-28T16:21:32;26.15;;;14.25;;
37715;SDS011;23562;50.540;12.504;2022-10-28T16:23:58;27.85;;;14.98;;
37715;SDS011;23562;50.540;12.504;2022-10-28T16:26:26;12.82;;;7.25;;
37715;SDS011;23562;50.540;12.504;2022-10-28T16:28:52;22.02;;;12.93;;
37715;SDS011;23562;50.540;12.504;2022-10-28T16:31:17;12.48;;;7.38;;
37715;SDS011;23562;50.540;12.504;2022-10-28T16:33:43;12.80;;;7.63;;
37715;SDS011;23562;50.540;12.504;2022-10-28T16:36:09;16.88;;;6.68;;
37715;SDS011;23562;50.540;12.504;2022-10-28T16:38:34;12.38;;;5.43;;
37715;SDS011;23562;50.540;12.504;2022-10-28T16:40:59;10.15;;;5.22;;
37715;SDS011;23562;50.540;12.504;2022-10-28T16:43:25;13.18;;;5.85;;
37715;SDS011;23562;50.540;12.504;2022-10-28T16:45:52;12.48;;;5.35;;
37715;SDS011;23562;50.540;12.504;2022-10-28T16:48:18;11.65;;;4.07;;
37715;SDS011;23562;50.540;12.504;2022-10-28T16:50:48;13.00;;;5.45;;
37715;SDS011;23562;50.540;12.504;2022-10-28T16:53:13;17.92;;;8.05;;
37715;SDS011;23562;50.540;12.504;2022-10-28T16:55:39;15.23;;;5.82;;
37715;SDS011;23562;50.540;12.504;2022-10-28T16:58:04;19.67;;;7.65;;
37715;SDS011;23562;50.540;12.504;2022-10-28T17:00:30;19.63;;;6.72;;
37715;SDS011;23562;50.540;12.504;2022-10-28T17:02:55;18.03;;;7.97;;
37715;SDS011;23562;50.540;12.504;2022-10-28T17:05:21;33.73;;;14.90;;
37715;SDS011;23562;50.540;12.504;2022-10-28T17:07:46;31.92;;;13.60;;
37715;SDS011;23562;50.540;12.504;2022-10-28T17:10:12;21.00;;;9.05;;
37715;SDS011;23562;50.540;12.504;2022-10-28T17:12:37;10.73;;;4.57;;
37715;SDS011;23562;50.540;12.504;2022-10-28T17:15:02;9.05;;;2.88;;
37715;SDS011;23562;50.540;12.504;2022-10-28T17:17:28;11.25;;;3.13;;
37715;SDS011;23562;50.540;12.504;2022-10-28T17:19:53;6.95;;;3.00;;
37715;SDS011;23562;50.540;12.504;2022-10-28T17:22:18;9.37;;;3.00;;
37715;SDS011;23562;50.540;12.504;2022-10-28T17:24:43;7.15;;;2.72;;
37715;SDS011;23562;50.540;12.504;2022-10-28T17:27:10;8.10;;;2.70;;
37715;SDS011;23562;50.540;12.504;2022-10-28T17:29:35;10.67;;;2.80;;